<?xml version="1.0" encoding="UTF-8"?>
<gpx xmlns="http://www.topografix.com/GPX/1/1" xmlns:xsi="http://www.w3.org/2001/XMLSchema-instance" version="1.1" xsi:schemaLocation="http://www.topografix.com/GPX/1/1 http://www.topografix.com/GPX/1/1/gpx.xsd">
  <metadata>
    <name>Southport Triathlon &amp; Multisport 2026 - Aquabike Sprint</name>
  </metadata>
  <trk>
    <name>Southport Triathlon &amp; Multisport 2026 - Aquabike Sprint</name>
    <trkseg>
      <trkpt lat="53.657491" lon="-3.007753">
        <ele>2.6</ele>
        <time>2026-05-17T06:45:00.000Z</time>
      </trkpt>
      <trkpt lat="53.656948" lon="-3.008663">
        <ele>2.599993</ele>
        <time>2026-05-17T06:45:09.000Z</time>
      </trkpt>
      <trkpt lat="53.65584" lon="-3.010505">
        <ele>2.686342</ele>
        <time>2026-05-17T06:45:26.000Z</time>
      </trkpt>
      <trkpt lat="53.655561" lon="-3.011022">
        <ele>2.731185</ele>
        <time>2026-05-17T06:45:31.000Z</time>
      </trkpt>
      <trkpt lat="53.655393" lon="-3.011294">
        <ele>2.859976</ele>
        <time>2026-05-17T06:45:34.000Z</time>
      </trkpt>
      <trkpt lat="53.655306" lon="-3.011419">
        <ele>2.926373</ele>
        <time>2026-05-17T06:45:35.000Z</time>
      </trkpt>
      <trkpt lat="53.65525" lon="-3.011525">
        <ele>2.972117</ele>
        <time>2026-05-17T06:45:36.000Z</time>
      </trkpt>
      <trkpt lat="53.654438" lon="-3.012845">
        <ele>3.599888</ele>
        <time>2026-05-17T06:45:49.000Z</time>
      </trkpt>
      <trkpt lat="53.65428" lon="-3.013103">
        <ele>3.722109</ele>
        <time>2026-05-17T06:45:51.000Z</time>
      </trkpt>
      <trkpt lat="53.654136" lon="-3.013171">
        <ele>3.794085</ele>
        <time>2026-05-17T06:45:53.000Z</time>
      </trkpt>
      <trkpt lat="53.65407" lon="-3.013366">
        <ele>3.853121</ele>
        <time>2026-05-17T06:45:54.000Z</time>
      </trkpt>
      <trkpt lat="53.653982" lon="-3.013548">
        <ele>3.918959</ele>
        <time>2026-05-17T06:45:56.000Z</time>
      </trkpt>
      <trkpt lat="53.65354" lon="-3.014159">
        <ele>4.189015</ele>
        <time>2026-05-17T06:46:02.000Z</time>
      </trkpt>
      <trkpt lat="53.653423" lon="-3.014215">
        <ele>4.252166</ele>
        <time>2026-05-17T06:46:03.000Z</time>
      </trkpt>
      <trkpt lat="53.653311" lon="-3.014366">
        <ele>4.321567</ele>
        <time>2026-05-17T06:46:05.000Z</time>
      </trkpt>
      <trkpt lat="53.65322" lon="-3.014483">
        <ele>4.369636</ele>
        <time>2026-05-17T06:46:06.000Z</time>
      </trkpt>
      <trkpt lat="53.65317" lon="-3.014692">
        <ele>4.436937</ele>
        <time>2026-05-17T06:46:07.000Z</time>
      </trkpt>
      <trkpt lat="53.653131" lon="-3.014778">
        <ele>4.464383</ele>
        <time>2026-05-17T06:46:08.000Z</time>
      </trkpt>
      <trkpt lat="53.653015" lon="-3.014969">
        <ele>4.543167</ele>
        <time>2026-05-17T06:46:10.000Z</time>
      </trkpt>
      <trkpt lat="53.652957" lon="-3.015032">
        <ele>4.563947</ele>
        <time>2026-05-17T06:46:11.000Z</time>
      </trkpt>
      <trkpt lat="53.652493" lon="-3.015731">
        <ele>4.432368</ele>
        <time>2026-05-17T06:46:18.000Z</time>
      </trkpt>
      <trkpt lat="53.652418" lon="-3.015838">
        <ele>4.411754</ele>
        <time>2026-05-17T06:46:19.000Z</time>
      </trkpt>
      <trkpt lat="53.652248" lon="-3.016086">
        <ele>4.365497</ele>
        <time>2026-05-17T06:46:21.000Z</time>
      </trkpt>
      <trkpt lat="53.65195" lon="-3.016518">
        <ele>4.283616</ele>
        <time>2026-05-17T06:46:25.000Z</time>
      </trkpt>
      <trkpt lat="53.651709" lon="-3.0167">
        <ele>4.229118</ele>
        <time>2026-05-17T06:46:28.000Z</time>
      </trkpt>
      <trkpt lat="53.651617" lon="-3.016989">
        <ele>4.191508</ele>
        <time>2026-05-17T06:46:30.000Z</time>
      </trkpt>
      <trkpt lat="53.651525" lon="-3.017136">
        <ele>4.198192</ele>
        <time>2026-05-17T06:46:31.000Z</time>
      </trkpt>
      <trkpt lat="53.648898" lon="-3.020991">
        <ele>4.645794</ele>
        <time>2026-05-17T06:47:10.000Z</time>
      </trkpt>
      <trkpt lat="53.648674" lon="-3.021297">
        <ele>4.67846</ele>
        <time>2026-05-17T06:47:13.000Z</time>
      </trkpt>
      <trkpt lat="53.648456" lon="-3.021389">
        <ele>4.703175</ele>
        <time>2026-05-17T06:47:15.000Z</time>
      </trkpt>
      <trkpt lat="53.648353" lon="-3.02128">
        <ele>4.717489</ele>
        <time>2026-05-17T06:47:16.000Z</time>
      </trkpt>
      <trkpt lat="53.648279" lon="-3.021274">
        <ele>4.724713</ele>
        <time>2026-05-17T06:47:17.000Z</time>
      </trkpt>
      <trkpt lat="53.648142" lon="-3.021344">
        <ele>4.740644</ele>
        <time>2026-05-17T06:47:19.000Z</time>
      </trkpt>
      <trkpt lat="53.648054" lon="-3.021527">
        <ele>4.756506</ele>
        <time>2026-05-17T06:47:21.000Z</time>
      </trkpt>
      <trkpt lat="53.648037" lon="-3.021686">
        <ele>4.76744</ele>
        <time>2026-05-17T06:47:22.000Z</time>
      </trkpt>
      <trkpt lat="53.648046" lon="-3.021764">
        <ele>4.772966</ele>
        <time>2026-05-17T06:47:23.000Z</time>
      </trkpt>
      <trkpt lat="53.647998" lon="-3.022057">
        <ele>4.793019</ele>
        <time>2026-05-17T06:47:25.000Z</time>
      </trkpt>
      <trkpt lat="53.647944" lon="-3.022223">
        <ele>4.805731</ele>
        <time>2026-05-17T06:47:26.000Z</time>
      </trkpt>
      <trkpt lat="53.647817" lon="-3.022523">
        <ele>4.829827</ele>
        <time>2026-05-17T06:47:28.000Z</time>
      </trkpt>
      <trkpt lat="53.647032" lon="-3.023579">
        <ele>4.611209</ele>
        <time>2026-05-17T06:47:39.000Z</time>
      </trkpt>
      <trkpt lat="53.646192" lon="-3.024524">
        <ele>4.340617</ele>
        <time>2026-05-17T06:47:50.000Z</time>
      </trkpt>
      <trkpt lat="53.645403" lon="-3.025289">
        <ele>4.14313</ele>
        <time>2026-05-17T06:48:00.000Z</time>
      </trkpt>
      <trkpt lat="53.644191" lon="-3.026253">
        <ele>3.997076</ele>
        <time>2026-05-17T06:48:15.000Z</time>
      </trkpt>
      <trkpt lat="53.643443" lon="-3.026745">
        <ele>4.036502</ele>
        <time>2026-05-17T06:48:24.000Z</time>
      </trkpt>
      <trkpt lat="53.642492" lon="-3.027257">
        <ele>4.339308</ele>
        <time>2026-05-17T06:48:35.000Z</time>
      </trkpt>
      <trkpt lat="53.641817" lon="-3.027536">
        <ele>4.700562</ele>
        <time>2026-05-17T06:48:43.000Z</time>
      </trkpt>
      <trkpt lat="53.64013" lon="-3.028076">
        <ele>5.55601</ele>
        <time>2026-05-17T06:49:02.000Z</time>
      </trkpt>
      <trkpt lat="53.639973" lon="-3.028051">
        <ele>5.629338</ele>
        <time>2026-05-17T06:49:04.000Z</time>
      </trkpt>
      <trkpt lat="53.639873" lon="-3.027994">
        <ele>5.684322</ele>
        <time>2026-05-17T06:49:05.000Z</time>
      </trkpt>
      <trkpt lat="53.639782" lon="-3.027888">
        <ele>5.737365</ele>
        <time>2026-05-17T06:49:06.000Z</time>
      </trkpt>
      <trkpt lat="53.639664" lon="-3.027746">
        <ele>5.81108</ele>
        <time>2026-05-17T06:49:08.000Z</time>
      </trkpt>
      <trkpt lat="53.639525" lon="-3.02772">
        <ele>5.876837</ele>
        <time>2026-05-17T06:49:10.000Z</time>
      </trkpt>
      <trkpt lat="53.63939" lon="-3.027818">
        <ele>5.91707</ele>
        <time>2026-05-17T06:49:12.000Z</time>
      </trkpt>
      <trkpt lat="53.639303" lon="-3.028041">
        <ele>5.964125</ele>
        <time>2026-05-17T06:49:14.000Z</time>
      </trkpt>
      <trkpt lat="53.639177" lon="-3.028236">
        <ele>6.011203</ele>
        <time>2026-05-17T06:49:16.000Z</time>
      </trkpt>
      <trkpt lat="53.639102" lon="-3.02836">
        <ele>6.043273</ele>
        <time>2026-05-17T06:49:17.000Z</time>
      </trkpt>
      <trkpt lat="53.638647" lon="-3.028658">
        <ele>6.184966</ele>
        <time>2026-05-17T06:49:22.000Z</time>
      </trkpt>
      <trkpt lat="53.638265" lon="-3.028898">
        <ele>6.301833</ele>
        <time>2026-05-17T06:49:27.000Z</time>
      </trkpt>
      <trkpt lat="53.637826" lon="-3.029235">
        <ele>6.443976</ele>
        <time>2026-05-17T06:49:32.000Z</time>
      </trkpt>
      <trkpt lat="53.637657" lon="-3.029421">
        <ele>6.504447</ele>
        <time>2026-05-17T06:49:34.000Z</time>
      </trkpt>
      <trkpt lat="53.637424" lon="-3.029704">
        <ele>6.591907</ele>
        <time>2026-05-17T06:49:37.000Z</time>
      </trkpt>
      <trkpt lat="53.637126" lon="-3.030141">
        <ele>6.711624</ele>
        <time>2026-05-17T06:49:41.000Z</time>
      </trkpt>
      <trkpt lat="53.635939" lon="-3.031854">
        <ele>7.104693</ele>
        <time>2026-05-17T06:49:58.000Z</time>
      </trkpt>
      <trkpt lat="53.63461" lon="-3.034063">
        <ele>7.285161</ele>
        <time>2026-05-17T06:50:19.000Z</time>
      </trkpt>
      <trkpt lat="53.633554" lon="-3.035724">
        <ele>7.064876</ele>
        <time>2026-05-17T06:50:35.000Z</time>
      </trkpt>
      <trkpt lat="53.633003" lon="-3.036491">
        <ele>6.804492</ele>
        <time>2026-05-17T06:50:43.000Z</time>
      </trkpt>
      <trkpt lat="53.632422" lon="-3.037205">
        <ele>6.550816</ele>
        <time>2026-05-17T06:50:51.000Z</time>
      </trkpt>
      <trkpt lat="53.631677" lon="-3.038014">
        <ele>6.248631</ele>
        <time>2026-05-17T06:51:01.000Z</time>
      </trkpt>
      <trkpt lat="53.630947" lon="-3.038729">
        <ele>6.012043</ele>
        <time>2026-05-17T06:51:10.000Z</time>
      </trkpt>
      <trkpt lat="53.627536" lon="-3.04168">
        <ele>6.543398</ele>
        <time>2026-05-17T06:51:53.000Z</time>
      </trkpt>
      <trkpt lat="53.62636" lon="-3.042816">
        <ele>6.629821</ele>
        <time>2026-05-17T06:52:08.000Z</time>
      </trkpt>
      <trkpt lat="53.625691" lon="-3.043507">
        <ele>6.734747</ele>
        <time>2026-05-17T06:52:17.000Z</time>
      </trkpt>
      <trkpt lat="53.622833" lon="-3.046662">
        <ele>7.161873</ele>
        <time>2026-05-17T06:52:55.000Z</time>
      </trkpt>
      <trkpt lat="53.625688" lon="-3.043511">
        <ele>6.73162</ele>
        <time>2026-05-17T06:53:33.000Z</time>
      </trkpt>
      <trkpt lat="53.626353" lon="-3.04282">
        <ele>6.661498</ele>
        <time>2026-05-17T06:53:42.000Z</time>
      </trkpt>
      <trkpt lat="53.627532" lon="-3.041683">
        <ele>6.523186</ele>
        <time>2026-05-17T06:53:57.000Z</time>
      </trkpt>
      <trkpt lat="53.630942" lon="-3.03872">
        <ele>6.115538</ele>
        <time>2026-05-17T06:54:40.000Z</time>
      </trkpt>
      <trkpt lat="53.631671" lon="-3.038008">
        <ele>6.164548</ele>
        <time>2026-05-17T06:54:49.000Z</time>
      </trkpt>
      <trkpt lat="53.632439" lon="-3.037203">
        <ele>6.543666</ele>
        <time>2026-05-17T06:54:59.000Z</time>
      </trkpt>
      <trkpt lat="53.633003" lon="-3.036491">
        <ele>6.860648</ele>
        <time>2026-05-17T06:55:07.000Z</time>
      </trkpt>
      <trkpt lat="53.633555" lon="-3.035733">
        <ele>7.068611</ele>
        <time>2026-05-17T06:55:15.000Z</time>
      </trkpt>
      <trkpt lat="53.634605" lon="-3.034062">
        <ele>7.333352</ele>
        <time>2026-05-17T06:55:31.000Z</time>
      </trkpt>
      <trkpt lat="53.635943" lon="-3.031857">
        <ele>7.135634</ele>
        <time>2026-05-17T06:55:52.000Z</time>
      </trkpt>
      <trkpt lat="53.637129" lon="-3.030138">
        <ele>6.676195</ele>
        <time>2026-05-17T06:56:09.000Z</time>
      </trkpt>
      <trkpt lat="53.637696" lon="-3.029519">
        <ele>6.422274</ele>
        <time>2026-05-17T06:56:17.000Z</time>
      </trkpt>
      <trkpt lat="53.637863" lon="-3.029347">
        <ele>6.348514</ele>
        <time>2026-05-17T06:56:19.000Z</time>
      </trkpt>
      <trkpt lat="53.638286" lon="-3.028997">
        <ele>6.166901</ele>
        <time>2026-05-17T06:56:24.000Z</time>
      </trkpt>
      <trkpt lat="53.638649" lon="-3.028795">
        <ele>6.021376</ele>
        <time>2026-05-17T06:56:28.000Z</time>
      </trkpt>
      <trkpt lat="53.639141" lon="-3.028489">
        <ele>5.822273</ele>
        <time>2026-05-17T06:56:34.000Z</time>
      </trkpt>
      <trkpt lat="53.63925" lon="-3.028481">
        <ele>5.781978</ele>
        <time>2026-05-17T06:56:35.000Z</time>
      </trkpt>
      <trkpt lat="53.639373" lon="-3.028533">
        <ele>5.732087</ele>
        <time>2026-05-17T06:56:36.000Z</time>
      </trkpt>
      <trkpt lat="53.63947" lon="-3.028636">
        <ele>5.687866</ele>
        <time>2026-05-17T06:56:37.000Z</time>
      </trkpt>
      <trkpt lat="53.639592" lon="-3.028661">
        <ele>5.63699</ele>
        <time>2026-05-17T06:56:38.000Z</time>
      </trkpt>
      <trkpt lat="53.639752" lon="-3.028537">
        <ele>5.571988</ele>
        <time>2026-05-17T06:56:40.000Z</time>
      </trkpt>
      <trkpt lat="53.639825" lon="-3.028348">
        <ele>5.519781</ele>
        <time>2026-05-17T06:56:41.000Z</time>
      </trkpt>
      <trkpt lat="53.639904" lon="-3.028245">
        <ele>5.481283</ele>
        <time>2026-05-17T06:56:42.000Z</time>
      </trkpt>
      <trkpt lat="53.639989" lon="-3.028157">
        <ele>5.444924</ele>
        <time>2026-05-17T06:56:43.000Z</time>
      </trkpt>
      <trkpt lat="53.640135" lon="-3.028084">
        <ele>5.3847</ele>
        <time>2026-05-17T06:56:45.000Z</time>
      </trkpt>
      <trkpt lat="53.641821" lon="-3.027547">
        <ele>4.643879</ele>
        <time>2026-05-17T06:57:04.000Z</time>
      </trkpt>
      <trkpt lat="53.642487" lon="-3.027262">
        <ele>4.367631</ele>
        <time>2026-05-17T06:57:12.000Z</time>
      </trkpt>
      <trkpt lat="53.643433" lon="-3.026744">
        <ele>4.0182</ele>
        <time>2026-05-17T06:57:23.000Z</time>
      </trkpt>
      <trkpt lat="53.644188" lon="-3.02626">
        <ele>3.914428</ele>
        <time>2026-05-17T06:57:32.000Z</time>
      </trkpt>
      <trkpt lat="53.645388" lon="-3.025293">
        <ele>4.159412</ele>
        <time>2026-05-17T06:57:47.000Z</time>
      </trkpt>
      <trkpt lat="53.646191" lon="-3.024529">
        <ele>4.335889</ele>
        <time>2026-05-17T06:57:57.000Z</time>
      </trkpt>
      <trkpt lat="53.647042" lon="-3.023581">
        <ele>4.532581</ele>
        <time>2026-05-17T06:58:08.000Z</time>
      </trkpt>
      <trkpt lat="53.647828" lon="-3.022513">
        <ele>4.532553</ele>
        <time>2026-05-17T06:58:19.000Z</time>
      </trkpt>
      <trkpt lat="53.648046" lon="-3.022255">
        <ele>4.532539</ele>
        <time>2026-05-17T06:58:22.000Z</time>
      </trkpt>
      <trkpt lat="53.648295" lon="-3.022112">
        <ele>4.532529</ele>
        <time>2026-05-17T06:58:25.000Z</time>
      </trkpt>
      <trkpt lat="53.648432" lon="-3.022024">
        <ele>4.532525</ele>
        <time>2026-05-17T06:58:27.000Z</time>
      </trkpt>
      <trkpt lat="53.648483" lon="-3.021929">
        <ele>4.53252</ele>
        <time>2026-05-17T06:58:28.000Z</time>
      </trkpt>
      <trkpt lat="53.648535" lon="-3.02166">
        <ele>4.512471</ele>
        <time>2026-05-17T06:58:30.000Z</time>
      </trkpt>
      <trkpt lat="53.648529" lon="-3.021598">
        <ele>4.50719</ele>
        <time>2026-05-17T06:58:30.000Z</time>
      </trkpt>
      <trkpt lat="53.648626" lon="-3.021383">
        <ele>4.483696</ele>
        <time>2026-05-17T06:58:32.000Z</time>
      </trkpt>
      <trkpt lat="53.648676" lon="-3.021296">
        <ele>4.474235</ele>
        <time>2026-05-17T06:58:33.000Z</time>
      </trkpt>
      <trkpt lat="53.648911" lon="-3.020997">
        <ele>4.432116</ele>
        <time>2026-05-17T06:58:36.000Z</time>
      </trkpt>
      <trkpt lat="53.651531" lon="-3.017142">
        <ele>4.226432</ele>
        <time>2026-05-17T06:59:15.000Z</time>
      </trkpt>
      <trkpt lat="53.651621" lon="-3.016999">
        <ele>4.257635</ele>
        <time>2026-05-17T06:59:16.000Z</time>
      </trkpt>
      <trkpt lat="53.651718" lon="-3.016706">
        <ele>4.306735</ele>
        <time>2026-05-17T06:59:18.000Z</time>
      </trkpt>
      <trkpt lat="53.651951" lon="-3.016511">
        <ele>4.371251</ele>
        <time>2026-05-17T06:59:21.000Z</time>
      </trkpt>
      <trkpt lat="53.652242" lon="-3.016073">
        <ele>4.468218</ele>
        <time>2026-05-17T06:59:25.000Z</time>
      </trkpt>
      <trkpt lat="53.652413" lon="-3.015833">
        <ele>4.522971</ele>
        <time>2026-05-17T06:59:27.000Z</time>
      </trkpt>
      <trkpt lat="53.652489" lon="-3.015713">
        <ele>4.512321</ele>
        <time>2026-05-17T06:59:28.000Z</time>
      </trkpt>
      <trkpt lat="53.652957" lon="-3.015036">
        <ele>4.36796</ele>
        <time>2026-05-17T06:59:35.000Z</time>
      </trkpt>
      <trkpt lat="53.65302" lon="-3.014965">
        <ele>4.353592</ele>
        <time>2026-05-17T06:59:36.000Z</time>
      </trkpt>
      <trkpt lat="53.653133" lon="-3.014764">
        <ele>4.31552</ele>
        <time>2026-05-17T06:59:38.000Z</time>
      </trkpt>
      <trkpt lat="53.653177" lon="-3.014694">
        <ele>4.302271</ele>
        <time>2026-05-17T06:59:39.000Z</time>
      </trkpt>
      <trkpt lat="53.65322" lon="-3.014636">
        <ele>4.2876</ele>
        <time>2026-05-17T06:59:40.000Z</time>
      </trkpt>
      <trkpt lat="53.653294" lon="-3.01437">
        <ele>4.246921</ele>
        <time>2026-05-17T06:59:42.000Z</time>
      </trkpt>
      <trkpt lat="53.653407" lon="-3.014374">
        <ele>4.224216</ele>
        <time>2026-05-17T06:59:43.000Z</time>
      </trkpt>
      <trkpt lat="53.653454" lon="-3.014325">
        <ele>4.210424</ele>
        <time>2026-05-17T06:59:44.000Z</time>
      </trkpt>
      <trkpt lat="53.653545" lon="-3.014157">
        <ele>4.180032</ele>
        <time>2026-05-17T06:59:45.000Z</time>
      </trkpt>
      <trkpt lat="53.653984" lon="-3.013543">
        <ele>3.937694</ele>
        <time>2026-05-17T06:59:51.000Z</time>
      </trkpt>
      <trkpt lat="53.654069" lon="-3.013348">
        <ele>3.852927</ele>
        <time>2026-05-17T06:59:53.000Z</time>
      </trkpt>
      <trkpt lat="53.654126" lon="-3.013182">
        <ele>3.776919</ele>
        <time>2026-05-17T06:59:54.000Z</time>
      </trkpt>
      <trkpt lat="53.65427" lon="-3.013105">
        <ele>3.684239</ele>
        <time>2026-05-17T06:59:56.000Z</time>
      </trkpt>
      <trkpt lat="53.654439" lon="-3.01285">
        <ele>3.548679</ele>
        <time>2026-05-17T06:59:59.000Z</time>
      </trkpt>
      <trkpt lat="53.655239" lon="-3.011521">
        <ele>2.96469</ele>
        <time>2026-05-17T07:00:11.000Z</time>
      </trkpt>
      <trkpt lat="53.655308" lon="-3.011421">
        <ele>2.947707</ele>
        <time>2026-05-17T07:00:12.000Z</time>
      </trkpt>
      <trkpt lat="53.655391" lon="-3.011281">
        <ele>2.923064</ele>
        <time>2026-05-17T07:00:13.000Z</time>
      </trkpt>
      <trkpt lat="53.655554" lon="-3.011008">
        <ele>2.875251</ele>
        <time>2026-05-17T07:00:16.000Z</time>
      </trkpt>
      <trkpt lat="53.655853" lon="-3.010511">
        <ele>2.788627</ele>
        <time>2026-05-17T07:00:21.000Z</time>
      </trkpt>
      <trkpt lat="53.656959" lon="-3.008653">
        <ele>2.809697</ele>
        <time>2026-05-17T07:00:38.000Z</time>
      </trkpt>
      <trkpt lat="53.657495" lon="-3.007761">
        <ele>2.952945</ele>
        <time>2026-05-17T07:00:46.000Z</time>
      </trkpt>
      <trkpt lat="53.659705" lon="-3.00405">
        <ele>4.497247</ele>
        <time>2026-05-17T07:01:21.000Z</time>
      </trkpt>
      <trkpt lat="53.661826" lon="-3.000533">
        <ele>4.532298</ele>
        <time>2026-05-17T07:01:54.000Z</time>
      </trkpt>
      <trkpt lat="53.662066" lon="-3.000117">
        <ele>4.462059</ele>
        <time>2026-05-17T07:01:58.000Z</time>
      </trkpt>
      <trkpt lat="53.662348" lon="-2.999642">
        <ele>4.382685</ele>
        <time>2026-05-17T07:02:02.000Z</time>
      </trkpt>
      <trkpt lat="53.662469" lon="-2.99948">
        <ele>4.349319</ele>
        <time>2026-05-17T07:02:04.000Z</time>
      </trkpt>
      <trkpt lat="53.662529" lon="-2.999327">
        <ele>4.328869</ele>
        <time>2026-05-17T07:02:05.000Z</time>
      </trkpt>
      <trkpt lat="53.662602" lon="-2.999041">
        <ele>4.291099</ele>
        <time>2026-05-17T07:02:07.000Z</time>
      </trkpt>
      <trkpt lat="53.662695" lon="-2.998901">
        <ele>4.255293</ele>
        <time>2026-05-17T07:02:08.000Z</time>
      </trkpt>
      <trkpt lat="53.663041" lon="-2.998564">
        <ele>4.055941</ele>
        <time>2026-05-17T07:02:12.000Z</time>
      </trkpt>
      <trkpt lat="53.663113" lon="-2.998439">
        <ele>4.004173</ele>
        <time>2026-05-17T07:02:13.000Z</time>
      </trkpt>
      <trkpt lat="53.666607" lon="-2.993021">
        <ele>1.909621</ele>
        <time>2026-05-17T07:03:06.000Z</time>
      </trkpt>
      <trkpt lat="53.666884" lon="-2.992696">
        <ele>1.960804</ele>
        <time>2026-05-17T07:03:10.000Z</time>
      </trkpt>
      <trkpt lat="53.667014" lon="-2.992578">
        <ele>2.01997</ele>
        <time>2026-05-17T07:03:12.000Z</time>
      </trkpt>
      <trkpt lat="53.667342" lon="-2.992293">
        <ele>2.163084</ele>
        <time>2026-05-17T07:03:16.000Z</time>
      </trkpt>
      <trkpt lat="53.670705" lon="-2.988707">
        <ele>3.662862</ele>
        <time>2026-05-17T07:04:00.000Z</time>
      </trkpt>
      <trkpt lat="53.670775" lon="-2.988641">
        <ele>3.685517</ele>
        <time>2026-05-17T07:04:01.000Z</time>
      </trkpt>
      <trkpt lat="53.67183" lon="-2.987533">
        <ele>4.004386</ele>
        <time>2026-05-17T07:04:15.000Z</time>
      </trkpt>
      <trkpt lat="53.672554" lon="-2.986694">
        <ele>4.159176</ele>
        <time>2026-05-17T07:04:25.000Z</time>
      </trkpt>
      <trkpt lat="53.675761" lon="-2.982879">
        <ele>4.465785</ele>
        <time>2026-05-17T07:05:09.000Z</time>
      </trkpt>
      <trkpt lat="53.676468" lon="-2.982002">
        <ele>4.668654</ele>
        <time>2026-05-17T07:05:19.000Z</time>
      </trkpt>
      <trkpt lat="53.676621" lon="-2.981778">
        <ele>4.71321</ele>
        <time>2026-05-17T07:05:21.000Z</time>
      </trkpt>
      <trkpt lat="53.67701" lon="-2.981244">
        <ele>4.828191</ele>
        <time>2026-05-17T07:05:27.000Z</time>
      </trkpt>
      <trkpt lat="53.678137" lon="-2.979738">
        <ele>4.692533</ele>
        <time>2026-05-17T07:05:43.000Z</time>
      </trkpt>
      <trkpt lat="53.678705" lon="-2.97891">
        <ele>4.489294</ele>
        <time>2026-05-17T07:05:51.000Z</time>
      </trkpt>
      <trkpt lat="53.679056" lon="-2.978327">
        <ele>4.197504</ele>
        <time>2026-05-17T07:05:56.000Z</time>
      </trkpt>
      <trkpt lat="53.679904" lon="-2.976736">
        <ele>3.560656</ele>
        <time>2026-05-17T07:06:10.000Z</time>
      </trkpt>
      <trkpt lat="53.68047" lon="-2.975515">
        <ele>3.629188</ele>
        <time>2026-05-17T07:06:20.000Z</time>
      </trkpt>
      <trkpt lat="53.680719" lon="-2.974917">
        <ele>3.661757</ele>
        <time>2026-05-17T07:06:25.000Z</time>
      </trkpt>
      <trkpt lat="53.681349" lon="-2.97325">
        <ele>4.012674</ele>
        <time>2026-05-17T07:06:38.000Z</time>
      </trkpt>
      <trkpt lat="53.681947" lon="-2.971307">
        <ele>4.454607</ele>
        <time>2026-05-17T07:06:52.000Z</time>
      </trkpt>
      <trkpt lat="53.682206" lon="-2.970319">
        <ele>4.636014</ele>
        <time>2026-05-17T07:06:59.000Z</time>
      </trkpt>
      <trkpt lat="53.682695" lon="-2.968022">
        <ele>4.840278</ele>
        <time>2026-05-17T07:07:15.000Z</time>
      </trkpt>
      <trkpt lat="53.682884" lon="-2.966963">
        <ele>4.829408</ele>
        <time>2026-05-17T07:07:22.000Z</time>
      </trkpt>
      <trkpt lat="53.682978" lon="-2.966218">
        <ele>4.822016</ele>
        <time>2026-05-17T07:07:27.000Z</time>
      </trkpt>
      <trkpt lat="53.68313" lon="-2.964664">
        <ele>4.758586</ele>
        <time>2026-05-17T07:07:37.000Z</time>
      </trkpt>
      <trkpt lat="53.683175" lon="-2.963595">
        <ele>4.715543</ele>
        <time>2026-05-17T07:07:44.000Z</time>
      </trkpt>
      <trkpt lat="53.68316" lon="-2.963011">
        <ele>4.696582</ele>
        <time>2026-05-17T07:07:48.000Z</time>
      </trkpt>
      <trkpt lat="53.683156" lon="-2.962397">
        <ele>4.685021</ele>
        <time>2026-05-17T07:07:52.000Z</time>
      </trkpt>
      <trkpt lat="53.683103" lon="-2.961748">
        <ele>4.67287</ele>
        <time>2026-05-17T07:07:56.000Z</time>
      </trkpt>
      <trkpt lat="53.683103" lon="-2.961633">
        <ele>4.670766</ele>
        <time>2026-05-17T07:07:57.000Z</time>
      </trkpt>
      <trkpt lat="53.683067" lon="-2.961214">
        <ele>4.663075</ele>
        <time>2026-05-17T07:08:00.000Z</time>
      </trkpt>
      <trkpt lat="53.682867" lon="-2.959542">
        <ele>4.636907</ele>
        <time>2026-05-17T07:08:11.000Z</time>
      </trkpt>
      <trkpt lat="53.682521" lon="-2.957924">
        <ele>4.618927</ele>
        <time>2026-05-17T07:08:22.000Z</time>
      </trkpt>
      <trkpt lat="53.682221" lon="-2.956882">
        <ele>4.662814</ele>
        <time>2026-05-17T07:08:30.000Z</time>
      </trkpt>
      <trkpt lat="53.681816" lon="-2.955724">
        <ele>4.79183</ele>
        <time>2026-05-17T07:08:39.000Z</time>
      </trkpt>
      <trkpt lat="53.681462" lon="-2.954868">
        <ele>4.893058</ele>
        <time>2026-05-17T07:08:46.000Z</time>
      </trkpt>
      <trkpt lat="53.681085" lon="-2.954106">
        <ele>5.050508</ele>
        <time>2026-05-17T07:08:53.000Z</time>
      </trkpt>
      <trkpt lat="53.680523" lon="-2.953077">
        <ele>5.288159</ele>
        <time>2026-05-17T07:09:02.000Z</time>
      </trkpt>
      <trkpt lat="53.680439" lon="-2.952974">
        <ele>5.317792</ele>
        <time>2026-05-17T07:09:03.000Z</time>
      </trkpt>
      <trkpt lat="53.680129" lon="-2.952595">
        <ele>5.42143</ele>
        <time>2026-05-17T07:09:07.000Z</time>
      </trkpt>
      <trkpt lat="53.679793" lon="-2.952239">
        <ele>5.400746</ele>
        <time>2026-05-17T07:09:11.000Z</time>
      </trkpt>
      <trkpt lat="53.679019" lon="-2.951443">
        <ele>5.352307</ele>
        <time>2026-05-17T07:09:21.000Z</time>
      </trkpt>
      <trkpt lat="53.6798" lon="-2.95225">
        <ele>5.306516</ele>
        <time>2026-05-17T07:09:31.000Z</time>
      </trkpt>
      <trkpt lat="53.680129" lon="-2.952591">
        <ele>5.288165</ele>
        <time>2026-05-17T07:09:35.000Z</time>
      </trkpt>
      <trkpt lat="53.680448" lon="-2.952972">
        <ele>5.270093</ele>
        <time>2026-05-17T07:09:39.000Z</time>
      </trkpt>
      <trkpt lat="53.680529" lon="-2.953074">
        <ele>5.265246</ele>
        <time>2026-05-17T07:09:40.000Z</time>
      </trkpt>
      <trkpt lat="53.681097" lon="-2.954104">
        <ele>5.132675</ele>
        <time>2026-05-17T07:09:49.000Z</time>
      </trkpt>
      <trkpt lat="53.681449" lon="-2.954875">
        <ele>4.949357</ele>
        <time>2026-05-17T07:09:55.000Z</time>
      </trkpt>
      <trkpt lat="53.681805" lon="-2.955734">
        <ele>4.754749</ele>
        <time>2026-05-17T07:10:02.000Z</time>
      </trkpt>
      <trkpt lat="53.682211" lon="-2.956873">
        <ele>4.655748</ele>
        <time>2026-05-17T07:10:11.000Z</time>
      </trkpt>
      <trkpt lat="53.682508" lon="-2.957917">
        <ele>4.628062</ele>
        <time>2026-05-17T07:10:19.000Z</time>
      </trkpt>
      <trkpt lat="53.682862" lon="-2.959544">
        <ele>4.627227</ele>
        <time>2026-05-17T07:10:30.000Z</time>
      </trkpt>
      <trkpt lat="53.683077" lon="-2.961219">
        <ele>4.675368</ele>
        <time>2026-05-17T07:10:41.000Z</time>
      </trkpt>
      <trkpt lat="53.683096" lon="-2.961637">
        <ele>4.687081</ele>
        <time>2026-05-17T07:10:44.000Z</time>
      </trkpt>
      <trkpt lat="53.683102" lon="-2.961749">
        <ele>4.690302</ele>
        <time>2026-05-17T07:10:45.000Z</time>
      </trkpt>
      <trkpt lat="53.683144" lon="-2.9624">
        <ele>4.698841</ele>
        <time>2026-05-17T07:10:49.000Z</time>
      </trkpt>
      <trkpt lat="53.683158" lon="-2.963021">
        <ele>4.706573</ele>
        <time>2026-05-17T07:10:53.000Z</time>
      </trkpt>
      <trkpt lat="53.68318" lon="-2.963593">
        <ele>4.713647</ele>
        <time>2026-05-17T07:10:57.000Z</time>
      </trkpt>
      <trkpt lat="53.683126" lon="-2.964665">
        <ele>4.726887</ele>
        <time>2026-05-17T07:11:04.000Z</time>
      </trkpt>
      <trkpt lat="53.682988" lon="-2.966226">
        <ele>4.818652</ele>
        <time>2026-05-17T07:11:14.000Z</time>
      </trkpt>
      <trkpt lat="53.68288" lon="-2.966963">
        <ele>4.865511</ele>
        <time>2026-05-17T07:11:19.000Z</time>
      </trkpt>
      <trkpt lat="53.682695" lon="-2.968015">
        <ele>4.891623</ele>
        <time>2026-05-17T07:11:26.000Z</time>
      </trkpt>
      <trkpt lat="53.682191" lon="-2.970323">
        <ele>4.652796</ele>
        <time>2026-05-17T07:11:42.000Z</time>
      </trkpt>
      <trkpt lat="53.681951" lon="-2.971307">
        <ele>4.464492</ele>
        <time>2026-05-17T07:11:49.000Z</time>
      </trkpt>
      <trkpt lat="53.681337" lon="-2.973257">
        <ele>4.009325</ele>
        <time>2026-05-17T07:12:04.000Z</time>
      </trkpt>
      <trkpt lat="53.680722" lon="-2.974926">
        <ele>3.638645</ele>
        <time>2026-05-17T07:12:17.000Z</time>
      </trkpt>
      <trkpt lat="53.680472" lon="-2.975515">
        <ele>3.502737</ele>
        <time>2026-05-17T07:12:22.000Z</time>
      </trkpt>
      <trkpt lat="53.679916" lon="-2.976737">
        <ele>3.677825</ele>
        <time>2026-05-17T07:12:32.000Z</time>
      </trkpt>
      <trkpt lat="53.679043" lon="-2.978336">
        <ele>4.169301</ele>
        <time>2026-05-17T07:12:46.000Z</time>
      </trkpt>
      <trkpt lat="53.678705" lon="-2.978903">
        <ele>4.377853</ele>
        <time>2026-05-17T07:12:51.000Z</time>
      </trkpt>
      <trkpt lat="53.678136" lon="-2.979748">
        <ele>4.698969</ele>
        <time>2026-05-17T07:12:59.000Z</time>
      </trkpt>
      <trkpt lat="53.677016" lon="-2.981247">
        <ele>4.759198</ele>
        <time>2026-05-17T07:13:15.000Z</time>
      </trkpt>
      <trkpt lat="53.676618" lon="-2.981784">
        <ele>4.702551</ele>
        <time>2026-05-17T07:13:21.000Z</time>
      </trkpt>
      <trkpt lat="53.676466" lon="-2.981994">
        <ele>4.680619</ele>
        <time>2026-05-17T07:13:23.000Z</time>
      </trkpt>
      <trkpt lat="53.675749" lon="-2.982892">
        <ele>4.578318</ele>
        <time>2026-05-17T07:13:33.000Z</time>
      </trkpt>
      <trkpt lat="53.672563" lon="-2.986699">
        <ele>4.156308</ele>
        <time>2026-05-17T07:14:16.000Z</time>
      </trkpt>
      <trkpt lat="53.671825" lon="-2.987529">
        <ele>4.034881</ele>
        <time>2026-05-17T07:14:26.000Z</time>
      </trkpt>
      <trkpt lat="53.670768" lon="-2.988655">
        <ele>3.680833</ele>
        <time>2026-05-17T07:14:40.000Z</time>
      </trkpt>
      <trkpt lat="53.670717" lon="-2.988703">
        <ele>3.661996</ele>
        <time>2026-05-17T07:14:41.000Z</time>
      </trkpt>
      <trkpt lat="53.66734" lon="-2.992294">
        <ele>2.168206</ele>
        <time>2026-05-17T07:15:25.000Z</time>
      </trkpt>
      <trkpt lat="53.667022" lon="-2.992584">
        <ele>2.144408</ele>
        <time>2026-05-17T07:15:29.000Z</time>
      </trkpt>
      <trkpt lat="53.666882" lon="-2.992698">
        <ele>2.134574</ele>
        <time>2026-05-17T07:15:31.000Z</time>
      </trkpt>
      <trkpt lat="53.666619" lon="-2.993012">
        <ele>2.11332</ele>
        <time>2026-05-17T07:15:35.000Z</time>
      </trkpt>
      <trkpt lat="53.663098" lon="-2.998442">
        <ele>4.180203</ele>
        <time>2026-05-17T07:16:28.000Z</time>
      </trkpt>
      <trkpt lat="53.662921" lon="-2.998537">
        <ele>4.254012</ele>
        <time>2026-05-17T07:16:30.000Z</time>
      </trkpt>
      <trkpt lat="53.662836" lon="-2.998546">
        <ele>4.285203</ele>
        <time>2026-05-17T07:16:31.000Z</time>
      </trkpt>
      <trkpt lat="53.662674" lon="-2.998444">
        <ele>4.352782</ele>
        <time>2026-05-17T07:16:33.000Z</time>
      </trkpt>
      <trkpt lat="53.662561" lon="-2.998334">
        <ele>4.40483</ele>
        <time>2026-05-17T07:16:34.000Z</time>
      </trkpt>
      <trkpt lat="53.662412" lon="-2.998357">
        <ele>4.459049</ele>
        <time>2026-05-17T07:16:36.000Z</time>
      </trkpt>
      <trkpt lat="53.662316" lon="-2.99849">
        <ele>4.508611</ele>
        <time>2026-05-17T07:16:37.000Z</time>
      </trkpt>
      <trkpt lat="53.662276" lon="-2.998726">
        <ele>4.560464</ele>
        <time>2026-05-17T07:16:39.000Z</time>
      </trkpt>
      <trkpt lat="53.662289" lon="-2.998869">
        <ele>4.59454</ele>
        <time>2026-05-17T07:16:40.000Z</time>
      </trkpt>
      <trkpt lat="53.662357" lon="-2.998986">
        <ele>4.628861</ele>
        <time>2026-05-17T07:16:41.000Z</time>
      </trkpt>
      <trkpt lat="53.662384" lon="-2.999323">
        <ele>4.705261</ele>
        <time>2026-05-17T07:16:43.000Z</time>
      </trkpt>
      <trkpt lat="53.662335" lon="-2.99965">
        <ele>4.741558</ele>
        <time>2026-05-17T07:16:45.000Z</time>
      </trkpt>
      <trkpt lat="53.662067" lon="-3.000118">
        <ele>4.739439</ele>
        <time>2026-05-17T07:16:49.000Z</time>
      </trkpt>
      <trkpt lat="53.661826" lon="-3.000535">
        <ele>4.73755</ele>
        <time>2026-05-17T07:16:53.000Z</time>
      </trkpt>
      <trkpt lat="53.659704" lon="-3.004055">
        <ele>4.595135</ele>
        <time>2026-05-17T07:17:26.000Z</time>
      </trkpt>
      <trkpt lat="53.657485" lon="-3.007758">
        <ele>3.78216</ele>
        <time>2026-05-17T07:18:01.000Z</time>
      </trkpt>
    </trkseg>
  </trk>
</gpx>

<!--
Performance optimized by W3 Total Cache. Learn more: https://www.boldgrid.com/w3-total-cache/?utm_source=w3tc&utm_medium=footer_comment&utm_campaign=free_plugin

Page Caching using Disk: Enhanced{w3tc_pagecache_reject_reason} 

Served from: www.aquabike.world @ 2026-05-10 17:31:50 by W3 Total Cache
-->